Time;durP1;ratioP1;P1;durP2;ratioP2;P2;SDS_P1;SDS_P2;PMS_P1;PMS_P2;Temp;Humidity;BMP_temperature;BMP_pressure;BME280_temperature;BME280_humidity;BME280_pressure;Samples;Min_cycle;Max_cycle;Signal;HPM_P1;HPM_P2
2022/03/23 00:00:43;;;;;;;0.17;0.17;;;;;;;21.05;34.80;102578.38;5089444;28;20043;-31
2022/03/23 00:03:10;;;;;;;0.20;0.20;;;;;;;21.05;34.86;102577.56;5089777;28;20470;-32
2022/03/23 00:05:41;;;;;;;0.20;0.20;;;;;;;21.05;34.91;102577.56;5108277;28;20043;-33
2022/03/23 00:08:07;;;;;;;0.10;0.10;;;;;;;21.06;34.94;102584.75;5092123;28;20051;-32
2022/03/23 00:10:34;;;;;;;0.10;0.10;;;;;;;21.04;34.97;102578.66;5108900;28;20073;-32
2022/03/23 00:13:00;;;;;;;0.13;0.13;;;;;;;21.05;34.96;102574.78;5112507;28;20340;-32
2022/03/23 00:15:27;;;;;;;0.20;0.20;;;;;;;21.05;35.05;102583.94;5106682;28;20519;-31
2022/03/23 00:17:53;;;;;;;0.10;0.10;;;;;;;21.05;34.84;102577.56;5107608;28;20393;-31
2022/03/23 00:20:19;;;;;;;0.13;0.13;;;;;;;21.03;35.15;102579.75;5106071;28;20458;-31
2022/03/23 00:22:50;;;;;;;0.10;0.10;;;;;;;21.03;34.93;102580.59;5108286;28;20039;-31
2022/03/23 00:25:16;;;;;;;0.17;0.17;;;;;;;21.03;35.00;102583.34;5094734;28;20039;-31
2022/03/23 00:27:42;;;;;;;0.10;0.10;;;;;;;21.03;35.09;102583.34;5108832;28;20158;-34
2022/03/23 00:30:08;;;;;;;1.35;0.85;;;;;;;21.04;35.03;102582.25;5089463;28;20088;-32
2022/03/23 00:32:34;;;;;;;0.10;0.10;;;;;;;21.04;35.01;102578.66;5089592;28;20075;-34
2022/03/23 00:35:01;;;;;;;0.20;0.20;;;;;;;21.03;35.03;102580.59;5107618;28;20234;-31
2022/03/23 00:37:26;;;;;;;0.10;0.10;;;;;;;21.03;34.99;102576.97;5089880;28;20046;-32
2022/03/23 00:39:52;;;;;;;0.70;0.20;;;;;;;21.04;35.17;102585.03;5091100;28;20044;-32
2022/03/23 00:42:18;;;;;;;0.20;0.20;;;;;;;21.03;35.08;102588.91;5091003;28;20561;-32
2022/03/23 00:44:43;;;;;;;0.10;0.10;;;;;;;21.03;35.04;102577.81;5107037;28;20044;-32
2022/03/23 00:47:09;;;;;;;0.20;0.20;;;;;;;21.03;34.86;102580.59;5106191;28;20047;-33
2022/03/23 00:49:36;;;;;;;0.10;0.10;;;;;;;21.04;34.94;102581.44;5088126;28;20058;-32
2022/03/23 00:52:06;;;;;;;0.15;0.15;;;;;;;21.04;35.04;102581.44;5070061;28;20090;-33
2022/03/23 00:54:34;;;;;;;0.20;0.20;;;;;;;21.03;34.88;102576.97;5112018;28;20075;-31
2022/03/23 00:57:01;;;;;;;0.20;0.20;;;;;;;21.04;35.12;102581.44;5095677;28;20730;-33
2022/03/23 00:59:27;;;;;;;0.10;0.10;;;;;;;21.03;35.03;102579.75;5109346;28;20050;-34
2022/03/23 01:01:53;;;;;;;0.10;0.10;;;;;;;21.02;35.07;102587.19;5111310;28;20066;-31
2022/03/23 01:04:19;;;;;;;0.30;0.30;;;;;;;21.02;34.96;102578.88;5092653;28;20044;-31
2022/03/23 01:06:46;;;;;;;0.10;0.10;;;;;;;21.03;35.02;102577.81;5092566;28;20040;-31
2022/03/23 01:09:12;;;;;;;0.20;0.20;;;;;;;21.03;34.78;102583.34;5111704;28;20185;-32
2022/03/23 01:11:39;;;;;;;0.20;0.20;;;;;;;21.03;35.13;102575.06;5091659;28;20047;-33
2022/03/23 01:14:05;;;;;;;0.13;0.13;;;;;;;21.03;35.01;102574.22;5091994;28;20051;-35
2022/03/23 01:16:31;;;;;;;0.20;0.20;;;;;;;21.02;35.24;102575.28;5109379;28;20431;-32
2022/03/23 01:18:57;;;;;;;0.10;0.10;;;;;;;21.01;35.05;102577.22;5110739;28;20128;-33
2022/03/23 01:21:23;;;;;;;0.20;0.20;;;;;;;21.02;34.89;102581.66;5110023;28;20043;-32
2022/03/23 01:23:49;;;;;;;0.20;0.20;;;;;;;21.02;35.17;102576.13;5111916;28;20128;-32
2022/03/23 01:26:15;;;;;;;0.10;0.10;;;;;;;21.02;34.98;102576.13;5113906;28;20070;-33
2022/03/23 01:28:40;;;;;;;0.10;0.10;;;;;;;21.03;35.14;102583.34;5111892;28;20386;-34
2022/03/23 01:31:08;;;;;;;0.20;0.20;;;;;;;21.03;35.06;102574.22;5111556;28;20050;-32
2022/03/23 01:33:34;;;;;;;0.10;0.10;;;;;;;21.03;35.12;102576.97;5110422;28;20127;-33
2022/03/23 01:35:59;;;;;;;0.20;0.20;;;;;;;21.02;35.22;102573.34;5110574;28;20051;-31
2022/03/23 01:38:25;;;;;;;0.20;0.20;;;;;;;21.02;34.91;102576.13;5111662;28;20134;-32
2022/03/23 01:40:52;;;;;;;0.20;0.20;;;;;;;21.02;35.21;102575.28;5112278;28;20107;-34
2022/03/23 01:43:17;;;;;;;0.10;0.10;;;;;;;21.02;35.15;102578.06;5113348;28;20478;-32
2022/03/23 01:45:43;;;;;;;0.20;0.20;;;;;;;21.03;34.88;102576.97;5092069;28;20063;-31
2022/03/23 01:48:09;;;;;;;0.10;0.10;;;;;;;21.02;35.15;102578.06;5092753;28;20036;-33
2022/03/23 01:50:40;;;;;;;0.20;0.20;;;;;;;21.02;35.03;102575.28;5109881;28;20050;-32
2022/03/23 01:53:07;;;;;;;0.20;0.20;;;;;;;21.01;35.18;102571.69;5108433;28;20040;-32
2022/03/23 01:55:33;;;;;;;0.20;0.20;;;;;;;21.02;35.03;102578.06;5109737;28;20405;-33
2022/03/23 01:57:59;;;;;;;0.15;0.15;;;;;;;21.02;35.32;102581.66;5114152;28;20047;-33
2022/03/23 02:00:26;;;;;;;0.17;0.17;;;;;;;21.02;35.15;102578.88;5109713;28;20413;-32
2022/03/23 02:02:52;;;;;;;0.10;0.10;;;;;;;21.02;35.03;102581.66;5112477;28;20092;-33
2022/03/23 02:05:18;;;;;;;0.10;0.10;;;;;;;21.02;35.08;102576.13;5109540;28;20052;-32
2022/03/23 02:07:43;;;;;;;0.15;0.15;;;;;;;21.02;35.04;102576.13;5112172;28;20047;-33
2022/03/23 02:10:09;;;;;;;0.10;0.10;;;;;;;21.01;34.94;102568.91;5110010;28;20050;-33
2022/03/23 02:12:35;;;;;;;0.10;0.10;;;;;;;21.02;35.05;102564.19;5111287;28;20058;-31
2022/03/23 02:15:11;;;;;;;0.10;0.10;;;;;;;21.01;34.94;102563.38;5112798;28;20053;-32
2022/03/23 02:17:36;;;;;;;0.10;0.10;;;;;;;21.02;34.97;102569.75;5091199;28;20075;-30
2022/03/23 02:20:03;;;;;;;0.10;0.10;;;;;;;21.02;34.95;102566.97;5111844;28;20042;-33
2022/03/23 02:22:29;;;;;;;0.10;0.10;;;;;;;21.01;34.98;102559.75;5108966;28;20048;-35
2022/03/23 02:24:56;;;;;;;0.10;0.10;;;;;;;21.01;34.97;102560.59;5114240;28;20092;-33
2022/03/23 02:27:22;;;;;;;0.20;0.20;;;;;;;21.02;35.20;102561.44;5108774;28;20078;-31
2022/03/23 02:29:48;;;;;;;0.10;0.10;;;;;;;21.00;35.25;102550.63;5109300;28;20040;-32
2022/03/23 02:32:13;;;;;;;0.20;0.20;;;;;;;21.02;35.24;102555.91;5110521;28;20062;-32
2022/03/23 02:34:39;;;;;;;0.20;0.20;;;;;;;21.02;34.84;102553.13;5092573;28;20039;-32
2022/03/23 02:37:05;;;;;;;0.13;0.13;;;;;;;21.02;35.00;102553.13;5109356;28;20062;-31
2022/03/23 02:39:31;;;;;;;0.20;0.20;;;;;;;21.03;35.02;102557.59;5090930;28;20055;-34
2022/03/23 02:41:57;;;;;;;0.10;0.10;;;;;;;21.02;35.04;102555.91;5091000;28;20398;-30
2022/03/23 02:44:23;;;;;;;0.20;0.20;;;;;;;21.01;35.19;102552.28;5109296;28;20093;-31
2022/03/23 02:46:49;;;;;;;0.10;0.10;;;;;;;21.01;34.99;102548.69;5112485;28;20397;-32
2022/03/23 02:49:16;;;;;;;0.10;0.10;;;;;;;21.02;34.91;102550.34;5110345;28;20051;-31
2022/03/23 02:51:42;;;;;;;0.10;0.10;;;;;;;21.01;35.06;102552.28;5107882;28;20065;-31
2022/03/23 03:02:39;;;;;;;0.10;0.10;;;;;;;21.00;35.17;102556.16;5159447;27;20582;-29
2022/03/23 03:05:09;;;;;;;0.10;0.10;;;;;;;21.02;34.88;102566.97;5127235;27;20050;-29
2022/03/23 03:08:44;;;;;;;0.10;0.10;;;;;;;21.00;35.22;102561.69;5127850;27;20046;-32
2022/03/23 03:10:21;;;;;;;0.20;0.20;;;;;;;21.01;35.10;102566.13;5129998;27;20067;-29
2022/03/23 03:12:47;;;;;;;0.10;0.10;;;;;;;21.02;35.32;102561.44;5144455;27;20043;-30
2022/03/23 03:15:14;;;;;;;0.20;0.20;;;;;;;21.01;35.18;102568.06;5109369;27;20069;-30
2022/03/23 03:17:46;;;;;;;0.10;0.10;;;;;;;20.99;35.44;102567.50;5132494;27;20130;-30
2022/03/23 03:20:14;;;;;;;0.20;0.20;;;;;;;21.00;35.30;102569.16;5149103;27;20050;-31
2022/03/23 03:22:40;;;;;;;0.10;0.10;;;;;;;21.01;35.11;102565.31;5148881;27;20508;-29
2022/03/23 03:25:07;;;;;;;0.10;0.10;;;;;;;21.01;35.10;102573.63;5125744;27;20066;-29
2022/03/23 03:27:35;;;;;;;0.10;0.10;;;;;;;21.01;35.29;102571.69;5130096;27;20047;-30
2022/03/23 03:30:05;;;;;;;0.10;0.10;;;;;;;21.01;35.14;102570.84;5144808;27;20039;-32
2022/03/23 03:32:30;;;;;;;0.10;0.10;;;;;;;21.00;35.28;102570.00;5127111;27;20108;-29
2022/03/23 03:34:57;;;;;;;0.10;0.10;;;;;;;20.99;35.34;102568.34;5144581;27;20039;-29
2022/03/23 03:37:23;;;;;;;0.10;0.10;;;;;;;21.00;35.36;102575.53;5112255;27;20043;-29
2022/03/23 03:39:49;;;;;;;0.10;0.10;;;;;;;20.99;35.12;102573.88;5123073;28;20039;-29
2022/03/23 03:42:14;;;;;;;0.17;0.17;;;;;;;21.01;35.24;102568.06;5123463;27;20046;-29
2022/03/23 03:44:40;;;;;;;0.10;0.10;;;;;;;21.00;35.15;102572.78;5125806;27;20043;-29
2022/03/23 03:47:06;;;;;;;0.10;0.10;;;;;;;21.00;35.14;102574.72;5123187;28;20536;-29
2022/03/23 03:49:32;;;;;;;0.20;0.20;;;;;;;20.99;35.20;102571.09;5124164;28;20047;-29
2022/03/23 03:51:59;;;;;;;0.10;0.10;;;;;;;20.98;35.32;102574.97;5123413;27;20074;-29
2022/03/23 03:54:24;;;;;;;0.10;0.10;;;;;;;20.99;35.12;102576.66;5126539;27;20476;-29
2022/03/23 03:56:50;;;;;;;0.20;0.20;;;;;;;21.00;35.17;102577.47;5123746;28;20062;-33
2022/03/23 03:59:16;;;;;;;0.13;0.13;;;;;;;20.98;35.24;102577.75;5123475;28;20089;-29
2022/03/23 04:01:41;;;;;;;0.10;0.10;;;;;;;20.99;35.09;102576.66;5122472;28;20049;-29
2022/03/23 04:04:07;;;;;;;0.10;0.10;;;;;;;20.99;35.12;102573.03;5104446;28;20063;-29
2022/03/23 04:06:33;;;;;;;0.10;0.10;;;;;;;21.00;35.34;102580.25;5123026;28;20035;-29
2022/03/23 04:08:59;;;;;;;0.20;0.20;;;;;;;20.99;35.36;102576.66;5123138;28;20043;-29
2022/03/23 04:11:25;;;;;;;0.20;0.20;;;;;;;20.99;35.25;102586.88;5103042;27;20439;-29
2022/03/23 04:13:50;;;;;;;0.20;0.20;;;;;;;20.99;35.31;102587.72;5110539;28;20048;-29
2022/03/23 04:16:16;;;;;;;0.20;0.20;;;;;;;20.99;35.14;102587.72;5113965;28;20035;-30
2022/03/23 04:18:42;;;;;;;0.20;0.20;;;;;;;21.00;35.28;102591.34;5109008;28;20390;-32
2022/03/23 04:21:08;;;;;;;0.20;0.20;;;;;;;21.00;35.07;102589.41;5107700;28;20044;-29
2022/03/23 04:23:34;;;;;;;0.10;0.10;;;;;;;20.99;35.12;102592.44;5109576;28;20048;-29
2022/03/23 04:26:00;;;;;;;0.10;0.10;;;;;;;20.99;35.15;102593.25;5090989;28;20035;-28
2022/03/23 04:28:25;;;;;;;0.20;0.20;;;;;;;21.00;35.33;102592.16;5109259;28;20043;-30
2022/03/23 04:30:51;;;;;;;0.20;0.20;;;;;;;20.98;35.21;102593.50;5107074;28;20048;-30
2022/03/23 04:33:17;;;;;;;0.20;0.20;;;;;;;21.00;35.11;102594.09;5109256;28;20104;-29
2022/03/23 04:35:43;;;;;;;0.20;0.20;;;;;;;20.98;35.14;102597.13;5109271;28;20418;-29
2022/03/23 04:38:09;;;;;;;0.20;0.20;;;;;;;20.98;34.99;102594.38;5110090;28;20035;-29
2022/03/23 04:40:35;;;;;;;0.10;0.10;;;;;;;20.99;35.18;102600.75;5089675;28;21963;-29
2022/03/23 04:43:00;;;;;;;0.10;0.10;;;;;;;20.99;35.04;102597.97;5108202;28;20043;-34
2022/03/23 04:45:26;;;;;;;0.10;0.10;;;;;;;20.99;35.29;102596.03;5108525;28;20039;-33
2022/03/23 04:47:52;;;;;;;0.10;0.10;;;;;;;20.99;35.17;102603.50;5110132;28;20062;-32
2022/03/23 04:50:19;;;;;;;0.15;0.15;;;;;;;20.98;35.02;102610.13;5090278;28;20047;-32
2022/03/23 04:52:46;;;;;;;0.20;0.20;;;;;;;20.98;35.17;102613.75;5109238;28;20042;-32
2022/03/23 04:55:13;;;;;;;0.20;0.20;;;;;;;20.97;35.13;102616.75;5108677;28;20563;-32
2022/03/23 04:57:39;;;;;;;0.10;0.10;;;;;;;20.99;35.08;102620.13;5095458;28;20066;-32
2022/03/23 05:00:10;;;;;;;0.20;0.20;;;;;;;20.99;35.06;102615.44;5090073;28;20079;-34
2022/03/23 05:02:43;;;;;;;0.20;0.20;;;;;;;20.98;35.33;102622.06;5096296;28;20047;-32
2022/03/23 05:05:11;;;;;;;0.10;0.10;;;;;;;20.98;35.17;102615.66;5089434;28;21285;-33
2022/03/23 05:07:38;;;;;;;0.10;0.10;;;;;;;20.98;35.31;102618.44;5107013;28;20082;-32
2022/03/23 05:10:04;;;;;;;0.10;0.10;;;;;;;20.97;35.08;102619.53;5108463;28;20251;-31
2022/03/23 05:12:30;;;;;;;0.20;0.20;;;;;;;20.99;35.26;102626.50;5091791;28;20044;-30
2022/03/23 05:14:56;;;;;;;0.20;0.20;;;;;;;20.98;35.33;102618.44;5108050;28;20062;-32
2022/03/23 05:17:22;;;;;;;0.20;0.20;;;;;;;20.97;35.08;102623.13;5088963;28;20498;-30
2022/03/23 05:19:51;;;;;;;0.10;0.10;;;;;;;20.98;35.20;102626.72;5106492;28;20051;-32
2022/03/23 05:22:17;;;;;;;0.20;0.20;;;;;;;20.97;35.17;102630.59;5108768;28;20065;-32
2022/03/23 05:24:42;;;;;;;0.10;0.10;;;;;;;20.97;35.21;102625.06;5104630;28;20035;-29
2022/03/23 05:27:08;;;;;;;0.20;0.20;;;;;;;20.99;35.10;102625.66;5108704;28;20398;-29
2022/03/23 05:29:36;;;;;;;0.20;0.20;;;;;;;20.97;35.17;102620.34;5090570;28;20055;-30
2022/03/23 05:32:02;;;;;;;0.20;0.20;;;;;;;20.97;35.10;102623.13;5107049;28;20075;-30
2022/03/23 05:34:28;;;;;;;0.20;0.20;;;;;;;20.98;35.25;102621.19;5108966;28;20469;-29
2022/03/23 05:36:53;;;;;;;0.10;0.10;;;;;;;20.97;35.18;102625.91;5109152;28;20271;-30
2022/03/23 05:39:20;;;;;;;0.20;0.20;;;;;;;20.97;35.12;102614.81;5088508;28;20044;-30
2022/03/23 05:41:45;;;;;;;0.20;0.20;;;;;;;20.99;35.29;102622.91;5109399;28;20414;-33
2022/03/23 05:44:11;;;;;;;0.20;0.20;;;;;;;20.98;35.07;102626.72;5107894;28;20218;-30
2022/03/23 05:46:37;;;;;;;0.10;0.10;;;;;;;20.98;35.36;102622.06;5107602;28;20444;-32
2022/03/23 05:49:03;;;;;;;0.20;0.20;;;;;;;20.97;35.17;102622.28;5086229;28;20044;-32
2022/03/23 05:51:29;;;;;;;0.20;0.20;;;;;;;20.97;35.15;102631.44;5104756;28;20151;-33
2022/03/23 05:53:54;;;;;;;0.20;0.20;;;;;;;20.98;35.23;102621.19;5106545;28;20079;-34
2022/03/23 05:56:20;;;;;;;0.20;0.20;;;;;;;20.97;35.14;102625.91;5108125;28;20240;-32
2022/03/23 05:58:46;;;;;;;0.20;0.20;;;;;;;20.97;35.33;102628.66;5089368;28;20092;-32
2022/03/23 06:01:11;;;;;;;0.20;0.20;;;;;;;20.98;35.08;102623.97;5089279;28;20054;-29
2022/03/23 06:03:37;;;;;;;0.20;0.20;;;;;;;20.98;35.07;102632.28;5106083;28;20486;-29
2022/03/23 06:06:03;;;;;;;0.20;0.20;;;;;;;20.98;35.07;102632.28;5107066;28;20111;-30
2022/03/23 06:08:29;;;;;;;0.20;0.20;;;;;;;20.97;35.25;102639.75;5091887;28;20055;-31
2022/03/23 06:10:55;;;;;;;0.10;0.10;;;;;;;20.98;35.23;102632.28;5106538;28;20410;-31
2022/03/23 06:13:21;;;;;;;0.20;0.20;;;;;;;20.97;35.12;102636.16;5106715;28;20048;-31
2022/03/23 06:15:47;;;;;;;0.10;0.10;;;;;;;20.97;35.15;102633.38;5107086;28;20036;-31
2022/03/23 06:18:12;;;;;;;0.20;0.20;;;;;;;20.96;35.34;102635.31;5107963;28;20039;-34
2022/03/23 06:20:38;;;;;;;0.10;0.10;;;;;;;20.96;35.27;102635.31;5106120;28;20116;-32
2022/03/23 06:23:05;;;;;;;0.20;0.20;;;;;;;20.97;35.13;102638.91;5107436;28;20436;-34
2022/03/23 06:25:31;;;;;;;0.10;0.10;;;;;;;20.96;35.21;102640.84;5107334;28;20051;-32
2022/03/23 06:27:57;;;;;;;0.17;0.17;;;;;;;20.97;35.12;102631.44;5108170;28;20043;-33
2022/03/23 06:30:23;;;;;;;0.10;0.10;;;;;;;20.97;35.00;102641.69;5107212;28;20490;-32
2022/03/23 06:32:48;;;;;;;0.20;0.20;;;;;;;20.97;34.98;102647.22;5107594;28;20051;-31
2022/03/23 06:35:16;;;;;;;0.17;0.17;;;;;;;20.96;35.07;102642.78;5106627;28;20035;-33
2022/03/23 06:37:42;;;;;;;0.10;0.10;;;;;;;20.97;34.86;102644.44;5106834;28;20082;-31
2022/03/23 06:40:08;;;;;;;0.20;0.20;;;;;;;20.95;35.16;102649.41;5086271;28;20427;-32
2022/03/23 06:42:34;;;;;;;0.20;0.20;;;;;;;20.96;34.98;102648.31;5109750;28;20039;-31
2022/03/23 06:45:02;;;;;;;0.10;0.10;;;;;;;20.95;35.00;102649.41;5105806;28;20055;-33
2022/03/23 06:47:29;;;;;;;0.13;0.13;;;;;;;20.95;35.13;102649.41;5110745;28;20075;-32
2022/03/23 06:49:54;;;;;;;0.13;0.13;;;;;;;20.94;35.04;102651.34;5102266;28;20071;-31
2022/03/23 06:52:20;;;;;;;0.20;0.20;;;;;;;20.95;35.11;102653.03;5109469;28;20039;-33
2022/03/23 06:54:46;;;;;;;0.20;0.20;;;;;;;20.95;35.23;102657.72;5102349;28;20494;-32
2022/03/23 06:57:11;;;;;;;0.20;0.20;;;;;;;20.95;35.13;102647.47;5095749;28;20047;-34
2022/03/23 06:59:37;;;;;;;0.20;0.20;;;;;;;20.95;34.82;102654.97;5097226;28;20047;-32
2022/03/23 07:02:03;;;;;;;0.10;0.10;;;;;;;20.95;35.00;102663.28;5078227;28;20494;-33
2022/03/23 07:04:29;;;;;;;0.20;0.20;;;;;;;20.95;34.87;102666.03;5095465;28;20035;-31
2022/03/23 07:06:54;;;;;;;0.20;0.20;;;;;;;20.93;34.80;102666.25;5095780;28;20101;-33
2022/03/23 07:09:38;;;;;;;0.20;0.20;;;;;;;20.95;34.86;102666.03;5096444;28;20040;-32
2022/03/23 07:12:06;;;;;;;0.10;0.10;;;;;;;20.95;34.70;102663.28;5101568;28;20107;-35
2022/03/23 07:14:33;;;;;;;;;;;;;;;20.94;34.82;102670.75;5106617;28;20138;-31
2022/03/23 07:16:58;;;;;;;0.20;0.20;;;;;;;20.57;30.57;102672.28;5085108;28;19981;-31
2022/03/23 07:19:24;;;;;;;0.10;0.10;;;;;;;20.77;31.83;102673.50;5098232;28;20115;-34
2022/03/23 07:21:50;;;;;;;0.10;0.10;;;;;;;20.86;32.82;102668.38;5095979;28;20035;-31
2022/03/23 07:24:16;;;;;;;0.20;0.20;;;;;;;20.87;33.35;102681.13;5103641;28;20086;-31
2022/03/23 07:26:42;;;;;;;0.20;0.20;;;;;;;20.92;33.45;102678.44;5104309;28;20052;-32
2022/03/23 07:29:20;;;;;;;;;;;;;;;20.93;33.37;102684.81;5102874;28;20091;-32
2022/03/23 07:31:46;;;;;;;0.20;0.20;;;;;;;20.93;33.20;102682.88;5098696;28;21281;-31
2022/03/23 07:34:18;;;;;;;0.10;0.10;;;;;;;20.98;32.76;102682.13;5099753;28;20136;-35
2022/03/23 07:36:45;;;;;;;0.10;0.10;;;;;;;21.08;33.56;102676.78;5101271;28;20116;-34
2022/03/23 07:39:15;;;;;;;0.20;0.20;;;;;;;21.27;33.76;102678.19;5079697;28;20071;-35
2022/03/23 07:41:41;;;;;;;0.20;0.20;;;;;;;21.30;33.67;102676.84;5096841;28;20130;-32
2022/03/23 07:44:07;;;;;;;0.20;0.20;;;;;;;21.33;33.95;102681.06;5098555;28;20082;-30
2022/03/23 07:46:33;;;;;;;0.10;0.10;;;;;;;21.32;34.17;102685.78;5099681;28;20048;-31
2022/03/23 07:48:58;;;;;;;0.20;0.20;;;;;;;21.27;34.03;102692.03;5101129;28;20424;-35
2022/03/23 07:51:24;;;;;;;0.10;0.10;;;;;;;21.27;34.11;102686.50;5100777;28;20111;-33
2022/03/23 07:53:50;;;;;;;0.20;0.20;;;;;;;21.04;29.59;102689.47;5096693;28;20132;-39
2022/03/23 07:56:15;;;;;;;0.20;0.20;;;;;;;20.98;28.18;102696.84;5100170;28;20055;-39
2022/03/23 07:58:41;;;;;;;0.10;0.10;;;;;;;20.86;29.00;102701.59;5095175;28;20059;-32
2022/03/23 08:01:08;;;;;;;0.10;0.10;;;;;;;21.04;29.99;102701.38;5094934;28;20074;-33
2022/03/23 08:03:34;;;;;;;0.10;0.10;;;;;;;21.15;30.45;102705.13;5099587;28;20055;-31
2022/03/23 08:06:00;;;;;;;0.10;0.10;;;;;;;21.21;29.90;102692.22;5088641;28;20104;-43
2022/03/23 08:08:26;;;;;;;0.10;0.10;;;;;;;20.95;28.77;102705.66;5090554;28;20051;-32
2022/03/23 08:10:52;;;;;;;0.10;0.10;;;;;;;21.07;27.42;102702.81;5097770;28;20079;-35
2022/03/23 08:13:18;;;;;;;0.17;0.17;;;;;;;21.12;28.46;102707.59;5099600;28;20047;-38
2022/03/23 08:15:44;;;;;;;0.10;0.10;;;;;;;21.07;29.22;102711.13;5081181;28;20126;-40
2022/03/23 08:18:10;;;;;;;0.20;0.20;;;;;;;21.10;28.54;102710.59;5098624;28;20090;-35
2022/03/23 08:20:35;;;;;;;0.10;0.10;;;;;;;21.18;28.05;102706.59;5090838;28;20178;-34
2022/03/23 08:23:07;;;;;;;0.17;0.17;;;;;;;21.11;28.21;102709.50;5074055;28;20829;-31
2022/03/23 08:25:33;;;;;;;0.20;0.20;;;;;;;21.34;28.54;102707.72;5100600;28;20471;-31
2022/03/23 08:28:02;;;;;;;0.10;0.10;;;;;;;21.45;29.20;102704.81;5099620;28;20047;-30
2022/03/23 08:30:28;;;;;;;0.13;0.13;;;;;;;21.49;29.21;102700.47;5093822;28;20079;-33
2022/03/23 08:32:54;;;;;;;0.20;0.20;;;;;;;21.51;29.64;102708.53;5091066;28;20056;-30
2022/03/23 08:35:20;;;;;;;0.10;0.10;;;;;;;21.55;30.08;102706.94;5076770;28;20360;-31
2022/03/23 08:37:46;;;;;;;0.10;0.10;;;;;;;21.40;29.19;102704.75;5097336;28;20047;-35
2022/03/23 08:40:12;;;;;;;0.10;0.10;;;;;;;21.28;29.12;102707.56;5103207;28;20039;-30
2022/03/23 08:42:37;;;;;;;0.10;0.10;;;;;;;21.47;29.28;102704.59;5100690;28;20451;-34
2022/03/23 08:45:05;;;;;;;0.10;0.10;;;;;;;21.54;29.84;102703.34;5097094;28;20712;-30
2022/03/23 08:47:30;;;;;;;0.10;0.10;;;;;;;21.58;29.91;102711.97;5081105;28;20508;-31
2022/03/23 08:49:56;;;;;;;0.20;0.20;;;;;;;21.50;29.18;102709.59;5091570;28;20046;-32
2022/03/23 08:52:24;;;;;;;0.10;0.10;;;;;;;21.62;29.88;102704.81;5099954;28;20066;-32
2022/03/23 08:54:49;;;;;;;0.10;0.10;;;;;;;21.68;30.13;102706.59;5095424;28;20135;-30
2022/03/23 08:57:15;;;;;;;0.10;0.10;;;;;;;21.48;28.76;102706.25;5081141;28;20042;-35
2022/03/23 08:59:41;;;;;;;0.10;0.10;;;;;;;21.54;29.70;102708.88;5099923;28;20050;-30
2022/03/23 09:02:07;;;;;;;0.10;0.10;;;;;;;21.67;29.85;102701.28;5102416;28;20108;-33
2022/03/23 09:04:32;;;;;;;0.10;0.10;;;;;;;21.71;29.98;102708.81;5084027;28;20493;-31
2022/03/23 09:06:58;;;;;;;0.20;0.20;;;;;;;21.75;30.19;102700.84;5094399;28;20103;-35
2022/03/23 09:09:24;;;;;;;0.10;0.10;;;;;;;21.77;30.51;102704.22;5092903;28;20103;-33
2022/03/23 09:11:50;;;;;;;0.15;0.15;;;;;;;21.77;30.31;102713.38;5075362;28;20134;-33
2022/03/23 09:14:16;;;;;;;0.10;0.10;;;;;;;21.79;30.35;102702.84;5090824;28;20047;-31
2022/03/23 09:16:41;;;;;;;0.10;0.10;;;;;;;21.80;30.46;102706.44;5096823;28;20517;-31
2022/03/23 09:19:09;;;;;;;0.10;0.10;;;;;;;21.82;30.72;102709.00;5096273;28;20079;-33
2022/03/23 09:21:34;;;;;;;0.10;0.10;;;;;;;21.82;30.43;102707.06;5076040;28;20183;-31
2022/03/23 09:24:00;;;;;;;0.10;0.10;;;;;;;21.84;30.68;102712.31;5098294;28;20355;-32
2022/03/23 09:26:25;;;;;;;0.10;0.10;;;;;;;21.84;30.54;102704.00;5089659;28;20517;-32
2022/03/23 09:28:51;;;;;;;0.20;0.20;;;;;;;21.85;30.72;102698.22;5090248;28;20051;-36
2022/03/23 09:31:17;;;;;;;0.10;0.10;;;;;;;21.85;30.72;102691.81;5096117;28;20083;-32
2022/03/23 09:33:48;;;;;;;0.10;0.10;;;;;;;21.87;30.77;102707.13;5079407;28;20043;-33
2022/03/23 09:37:47;;;;;;;0.10;0.10;;;;;;;21.87;30.63;102703.50;5060683;28;20142;-31
2022/03/23 09:39:00;;;;;;;0.20;0.20;;;;;;;21.89;30.76;102701.31;5076154;28;20090;-33
2022/03/23 09:41:26;;;;;;;0.10;0.10;;;;;;;21.89;30.74;102692.97;5092680;28;20429;-35
2022/03/23 09:43:52;;;;;;;0.10;0.10;;;;;;;21.90;30.81;102694.69;5098573;28;20395;-30
2022/03/23 09:46:18;;;;;;;0.10;0.10;;;;;;;21.91;30.78;102697.19;5102751;28;20070;-32
2022/03/23 09:48:44;;;;;;;0.20;0.20;;;;;;;21.90;30.91;102689.97;5093812;28;20055;-32
2022/03/23 09:51:10;;;;;;;0.10;0.10;;;;;;;21.91;30.91;102685.25;5077737;28;20052;-32
2022/03/23 09:53:36;;;;;;;0.10;0.10;;;;;;;21.93;30.95;102685.81;5102828;28;20043;-30
2022/03/23 09:56:02;;;;;;;0.10;0.10;;;;;;;21.92;30.88;102693.31;5103632;28;20134;-31
2022/03/23 09:58:29;;;;;;;0.20;0.20;;;;;;;21.92;30.95;102682.22;5101843;28;20407;-33
2022/03/23 10:00:55;;;;;;;0.10;0.10;;;;;;;21.94;31.03;102688.34;5101309;28;20535;-33
2022/03/23 10:06:35;;;;;;;0.13;0.13;;;;;;;21.95;31.21;102694.75;5153579;27;20202;-29
2022/03/23 10:09:41;;;;;;;0.10;0.10;;;;;;;21.94;31.02;102693.91;5130448;27;20492;-30
2022/03/23 10:12:46;;;;;;;0.10;0.10;;;;;;;21.94;31.15;102693.06;5123982;27;20082;-29
2022/03/23 10:15:51;;;;;;;0.10;0.10;;;;;;;21.94;31.21;102691.13;5129781;27;20679;-32
2022/03/23 10:18:43;;;;;;;0.20;0.20;;;;;;;21.94;31.26;102698.63;5137652;27;20109;-30
2022/03/23 10:21:08;;;;;;;0.20;0.20;;;;;;;21.93;31.10;102692.22;5129133;27;20138;-28
2022/03/23 10:23:34;;;;;;;0.10;0.10;;;;;;;21.93;31.28;102694.16;5154780;27;20043;-28
2022/03/23 10:26:15;;;;;;;0.10;0.10;;;;;;;21.92;31.28;102686.94;5149317;27;20513;-29
2022/03/23 10:28:41;;;;;;;0.15;0.15;;;;;;;21.92;31.36;102687.75;5147469;27;20100;-31
2022/03/23 10:31:24;;;;;;;0.20;0.20;;;;;;;21.92;31.36;102692.47;5148400;27;20440;-29
2022/03/23 10:34:08;;;;;;;0.10;0.10;;;;;;;21.90;31.37;102678.88;5130447;27;20082;-29
2022/03/23 10:36:50;;;;;;;0.10;0.10;;;;;;;21.82;28.22;102690.41;5152621;27;20059;-40
2022/03/23 10:39:18;;;;;;;0.52;0.40;;;;;;;21.36;28.17;102683.34;5124519;27;20149;-33
2022/03/23 10:41:55;;;;;;;0.10;0.10;;;;;;;21.63;28.70;102684.34;5148870;27;20070;-33
2022/03/23 10:44:21;;;;;;;0.10;0.10;;;;;;;21.75;28.50;102682.25;5124875;27;20550;-31
2022/03/23 10:46:47;;;;;;;0.20;0.20;;;;;;;21.81;29.24;102682.34;5149182;27;20525;-31
2022/03/23 10:49:14;;;;;;;0.20;0.20;;;;;;;21.84;29.20;102676.28;5148713;27;20050;-34
2022/03/23 10:51:41;;;;;;;0.10;0.10;;;;;;;21.85;29.58;102672.41;5125192;27;20103;-33
2022/03/23 10:54:17;;;;;;;0.20;0.20;;;;;;;21.88;29.78;102675.50;5146937;27;20052;-33
2022/03/23 10:56:42;;;;;;;0.10;0.10;;;;;;;21.89;29.78;102673.56;5128970;27;20683;-31
2022/03/23 10:59:23;;;;;;;0.10;0.10;;;;;;;21.79;29.35;102669.56;5148194;27;20035;-34
2022/03/23 11:02:01;;;;;;;0.10;0.10;;;;;;;21.60;26.98;102670.97;5131084;27;20077;-39
2022/03/23 11:04:29;;;;;;;0.10;0.10;;;;;;;21.65;28.48;102664.66;5136021;27;20133;-31
2022/03/23 11:06:59;;;;;;;0.10;0.10;;;;;;;21.81;28.56;102669.31;5135726;27;20087;-31
2022/03/23 11:23:28;;;;;;;0.10;0.10;;;;;;;21.96;29.67;102654.81;5153846;27;20129;-32
2022/03/23 11:26:00;;;;;;;0.15;0.15;;;;;;;21.95;29.71;102659.50;5138203;27;20070;-32
2022/03/23 11:28:29;;;;;;;0.10;0.10;;;;;;;21.96;29.72;102650.09;5147795;27;20126;-31
2022/03/23 11:30:56;;;;;;;0.10;0.10;;;;;;;21.96;29.93;102655.63;5155303;27;20070;-31
2022/03/23 11:33:24;;;;;;;0.10;0.10;;;;;;;21.97;29.82;102646.22;5150486;27;20046;-31
2022/03/23 11:35:51;;;;;;;0.10;0.10;;;;;;;21.99;29.84;102649.59;5134478;27;20461;-32
2022/03/23 11:38:22;;;;;;;0.10;0.10;;;;;;;22.00;29.87;102644.88;5108000;27;20098;-32
2022/03/23 11:40:49;;;;;;;0.10;0.10;;;;;;;22.00;30.17;102640.16;5128742;27;20136;-30
2022/03/23 11:43:18;;;;;;;0.10;0.10;;;;;;;22.00;30.12;102637.38;5110024;27;20141;-32
2022/03/23 11:46:04;;;;;;;0.20;0.20;;;;;;;22.00;30.03;102631.84;5112636;27;20043;-31
2022/03/23 11:49:10;;;;;;;0.10;0.10;;;;;;;22.02;30.06;102637.13;5097381;27;20580;-33
2022/03/23 11:51:59;;;;;;;0.20;0.20;;;;;;;22.02;30.25;102632.44;5113656;27;20074;-31
2022/03/23 11:57:54;;;;;;;0.10;0.10;;;;;;;22.03;30.25;102630.50;5115142;27;20074;-33